Portada
METAR-TAF:

METAR-TAF

Aeropuertos :

Aeropuerto Capitán Aníbal Arab

Cobija, Bolivia

latitud: 11-02S, longitud: 068-47W, altitud: 235 m

Observación

El informe se hizo hace 5 horas y 0 minutos, a las 22:00 UTC
Viento 3 kt del sur
Temperatura 28°C
Humedad 74%
Presión 1006 hPa
Visibilidad 10 km o más
Escasas nubes a una altura de 2000 ft
Nubes dispersas a una altura de 8000 ft

METAR: SLCO 212200Z 18003KT 9999 FEW020 SCT080 28/23 Q1006

Hora: 23:00 (03:00 UTC)

Pronóstico

El informe se hizo hace 5 horas y 0 minutos, a las 22:00 UTC
Pronóstico válido del 22 a las 00 UTC al 22 a las 24 UTC
Viento kt del norte
Visibilidad 10 km o más
Escasas nubes a una altura de 1500 ft
Nubes dispersas a una altura de 8000 ft
Temporalmente
del 22 a las 17 UTC al 22 a las 20 UTC
Viento 10 kt del noreste
Visibilidad 10 km o más
Escasas nubes a una altura de 2000 ft
Escasas nubes a una altura de 2300 ft, Cumulonimbus.
Nubes dispersas a una altura de 1700 ft
chaparrones de lluvia
Evolucionando progresivamente
del 22 a las 03 UTC al 22 a las 05 UTC
Viento kt del norte
Evolucionando progresivamente
del 22 a las 14 UTC al 22 a las 16 UTC
Viento 15 kt del norte-noreste

TAF: SLCO 212200Z 2200/2224 00000KT 9999 FEW015 SCT080 TX30/2220Z TN22 /2210Z TEMPO 2217/2220 8000 SHRA FEW020 FEW023CB SLAL 212200Z 2200/2224 04010KT 9999 SCT017 TX20/2219Z TN09/2210Z BECMG 2203/2205 00000KT BECMG 2214/2216 02015KT

Observaciones y pronósticos meteorológicos de más de 4000 aeropuertos (mensajes METAR y TAF).

Los puntos amarillos y rojos representan las estaciones disponibles.

Ponga el ratón en el punto deseado para ver el nombre de la estación.

Haga clic para ver las observaciones y los pronósticos meteorológicos.

Para cambiar el mapa : haga clic en los botones verdes con una cruz de color negro para hacer un zoom, en el botón verde con un guión para alejar o en las flechas verdes para mapas adyacentes.


METAR-TAF: